Time,TemperatureF,DewpointF,PressureIn,WindDirection,WindDirectionDegrees,WindSpeedMPH,WindSpeedGustMPH,Humidity,HourlyPrecipIn,Conditions,Clouds,dailyrainin,SoftwareType,DateUTC
2014-12-27 00:10:00,39.1,36.0,30.17,SSW,203,0.0,1.0,88,0.00,,,0.00,weatherlink.com 1.10,2014-12-27 05:10:00,
2014-12-27 00:25:00,38.9,36.0,30.17,SSW,203,0.0,0.0,88,0.00,,,0.00,weatherlink.com 1.10,2014-12-27 05:25:00,
2014-12-27 00:40:00,38.2,35.0,30.17,SSW,203,0.0,0.0,88,0.00,,,0.00,weatherlink.com 1.10,2014-12-27 05:40:00,
2014-12-27 00:55:00,37.3,34.0,30.17,SSW,203,0.0,0.0,88,0.00,,,0.00,weatherlink.com 1.10,2014-12-27 05:55:00,
2014-12-27 01:10:00,36.6,34.0,30.17,SSW,203,0.0,0.0,89,0.00,,,0.00,weatherlink.com 1.10,2014-12-27 06:10:00,
2014-12-27 01:25:00,36.4,34.0,30.17,SSW,203,0.0,2.0,90,0.00,,,0.00,weatherlink.com 1.10,2014-12-27 06:25:00,
2014-12-27 01:40:00,38.0,36.0,30.17,South,171,0.0,3.0,91,0.00,,,0.00,weatherlink.com 1.10,2014-12-27 06:40:00,
2014-12-27 01:55:00,39.2,37.0,30.17,South,171,0.0,2.0,91,0.00,,,0.00,weatherlink.com 1.10,2014-12-27 06:55:00,
2014-12-27 02:10:00,40.0,37.0,30.17,SSE,163,0.0,3.0,90,0.00,,,0.00,weatherlink.com 1.10,2014-12-27 07:10:00,
2014-12-27 02:25:00,40.8,38.0,30.18,South,169,0.0,2.0,88,0.00,,,0.00,weatherlink.com 1.10,2014-12-27 07:25:00,
2014-12-27 02:40:00,41.5,38.0,30.18,SSW,213,0.0,3.0,86,0.00,,,0.00,weatherlink.com 1.10,2014-12-27 07:40:00,
2014-12-27 02:55:00,42.4,38.0,30.18,South,173,1.0,4.0,83,0.00,,,0.00,weatherlink.com 1.10,2014-12-27 07:55:00,
2014-12-27 03:10:00,43.0,37.0,30.18,SSE,157,0.0,6.0,80,0.00,,,0.00,weatherlink.com 1.10,2014-12-27 08:10:00,
2014-12-27 03:25:00,42.5,37.0,30.17,South,171,0.0,5.0,80,0.00,,,0.00,weatherlink.com 1.10,2014-12-27 08:25:00,
2014-12-27 03:40:00,42.2,36.0,30.17,South,169,2.0,4.0,80,0.00,,,0.00,weatherlink.com 1.10,2014-12-27 08:40:00,
2014-12-27 03:55:00,41.8,36.0,30.16,SSE,165,3.0,6.0,80,0.00,,,0.00,weatherlink.com 1.10,2014-12-27 08:55:00,
2014-12-27 04:10:00,42.5,37.0,30.15,South,178,5.0,6.0,80,0.00,,,0.00,weatherlink.com 1.10,2014-12-27 09:10:00,
2014-12-27 04:25:00,43.2,37.0,30.15,South,176,5.0,6.0,78,0.00,,,0.00,weatherlink.com 1.10,2014-12-27 09:25:00,
2014-12-27 04:40:00,44.1,37.0,30.15,SSW,204,4.0,8.0,75,0.00,,,0.00,weatherlink.com 1.10,2014-12-27 09:40:00,
2014-12-27 04:55:00,44.2,36.0,30.15,SW,227,0.0,8.0,74,0.00,,,0.00,weatherlink.com 1.10,2014-12-27 09:55:00,
2014-12-27 05:10:00,43.8,36.0,30.16,South,175,1.0,6.0,75,0.00,,,0.00,weatherlink.com 1.10,2014-12-27 10:10:00,
2014-12-27 05:25:00,43.6,36.0,30.15,SW,222,6.0,7.0,75,0.00,,,0.00,weatherlink.com 1.10,2014-12-27 10:25:00,
2014-12-27 05:40:00,43.7,36.0,30.15,South,182,4.0,10.0,75,0.00,,,0.00,weatherlink.com 1.10,2014-12-27 10:40:00,
2014-12-27 05:55:00,43.7,36.0,30.15,SE,138,4.0,10.0,75,0.00,,,0.00,weatherlink.com 1.10,2014-12-27 10:55:00,
2014-12-27 06:10:00,44.0,36.0,30.15,SSW,192,7.0,8.0,74,0.00,,,0.00,weatherlink.com 1.10,2014-12-27 11:10:00,
2014-12-27 06:25:00,44.5,36.0,30.16,SSW,196,1.0,9.0,72,0.00,,,0.00,weatherlink.com 1.10,2014-12-27 11:25:00,
2014-12-27 06:40:00,44.7,36.0,30.16,SW,218,5.0,9.0,71,0.00,,,0.00,weatherlink.com 1.10,2014-12-27 11:40:00,
2014-12-27 06:55:00,44.3,36.0,30.17,SW,229,1.0,5.0,72,0.00,,,0.00,weatherlink.com 1.10,2014-12-27 11:55:00,
2014-12-27 07:10:00,44.2,36.0,30.17,SW,220,1.0,8.0,72,0.00,,,0.00,weatherlink.com 1.10,2014-12-27 12:10:00,
2014-12-27 07:25:00,44.0,36.0,30.17,South,175,3.0,4.0,73,0.00,,,0.00,weatherlink.com 1.10,2014-12-27 12:25:00,
2014-12-27 07:40:00,44.1,36.0,30.16,South,184,3.0,10.0,73,0.00,,,0.00,weatherlink.com 1.10,2014-12-27 12:40:00,
2014-12-27 07:55:00,44.0,36.0,30.17,SSW,194,2.0,4.0,74,0.00,,,0.00,weatherlink.com 1.10,2014-12-27 12:55:00,
2014-12-27 08:10:00,44.3,36.0,30.17,SSW,192,0.0,8.0,73,0.00,,,0.00,weatherlink.com 1.10,2014-12-27 13:10:00,
2014-12-27 08:26:00,44.7,36.0,30.17,SW,215,3.0,7.0,72,0.00,,,0.00,weatherlink.com 1.10,2014-12-27 13:26:00,
2014-12-27 08:40:00,44.7,37.0,30.18,SW,214,2.0,7.0,73,0.00,,,0.00,weatherlink.com 1.10,2014-12-27 13:40:00,
2014-12-27 08:55:00,44.8,37.0,30.18,SSW,202,2.0,6.0,73,0.00,,,0.00,weatherlink.com 1.10,2014-12-27 13:55:00,
2014-12-27 09:10:00,45.1,37.0,30.17,SW,217,5.0,7.0,74,0.00,,,0.00,weatherlink.com 1.10,2014-12-27 14:10:00,
2014-12-27 09:25:00,45.2,38.0,30.17,SW,220,3.0,9.0,75,0.00,,,0.00,weatherlink.com 1.10,2014-12-27 14:25:00,
2014-12-27 09:40:00,45.9,38.0,30.16,South,181,4.0,8.0,74,0.00,,,0.00,weatherlink.com 1.10,2014-12-27 14:40:00,
2014-12-27 09:55:00,46.3,39.0,30.17,SSW,204,1.0,9.0,75,0.00,,,0.00,weatherlink.com 1.10,2014-12-27 14:55:00,
2014-12-27 10:10:00,47.3,40.0,30.17,SW,225,2.0,7.0,75,0.00,,,0.00,weatherlink.com 1.10,2014-12-27 15:10:00,
2014-12-27 10:25:00,48.8,40.0,30.16,WSW,245,6.0,10.0,71,0.00,,,0.00,weatherlink.com 1.10,2014-12-27 15:25:00,
2014-12-27 10:41:00,49.1,39.0,30.15,WSW,240,11.0,17.0,69,0.00,,,0.00,weatherlink.com 1.10,2014-12-27 15:41:00,
2014-12-27 10:56:00,48.9,40.0,30.14,SSW,200,7.0,13.0,71,0.00,,,0.00,weatherlink.com 1.10,2014-12-27 15:56:00,
2014-12-27 11:11:00,50.0,40.0,30.14,SSW,204,4.0,12.0,69,0.00,,,0.00,weatherlink.com 1.10,2014-12-27 16:11:00,
2014-12-27 11:26:00,49.6,41.0,30.14,SSW,211,4.0,11.0,72,0.00,,,0.00,weatherlink.com 1.10,2014-12-27 16:26:00,
2014-12-27 11:41:00,49.1,41.0,30.14,SW,224,4.0,13.0,74,0.00,,,0.00,weatherlink.com 1.10,2014-12-27 16:41:00,
2014-12-27 11:56:00,49.2,41.0,30.12,SW,233,1.0,15.0,74,0.00,,,0.00,weatherlink.com 1.10,2014-12-27 16:56:00,
2014-12-27 12:11:00,49.9,42.0,30.11,West,262,4.0,13.0,74,0.00,,,0.00,weatherlink.com 1.10,2014-12-27 17:11:00,
2014-12-27 12:26:00,50.3,42.0,30.11,WSW,252,1.0,11.0,74,0.00,,,0.00,weatherlink.com 1.10,2014-12-27 17:26:00,
2014-12-27 12:41:00,50.6,42.0,30.08,SW,221,7.0,12.0,72,0.00,,,0.00,weatherlink.com 1.10,2014-12-27 17:41:00,
2014-12-27 12:56:00,50.8,42.0,30.08,West,259,1.0,11.0,71,0.00,,,0.00,weatherlink.com 1.10,2014-12-27 17:56:00,
2014-12-27 13:11:00,51.0,42.0,30.08,SW,231,2.0,10.0,72,0.00,,,0.00,weatherlink.com 1.10,2014-12-27 18:11:00,
2014-12-27 13:26:00,51.0,43.0,30.07,WSW,249,6.0,10.0,73,0.00,,,0.00,weatherlink.com 1.10,2014-12-27 18:26:00,
2014-12-27 13:41:00,50.7,43.0,30.06,SSE,163,0.0,10.0,75,0.00,,,0.00,weatherlink.com 1.10,2014-12-27 18:41:00,
2014-12-27 13:56:00,50.6,43.0,30.06,SSW,202,4.0,12.0,76,0.00,,,0.00,weatherlink.com 1.10,2014-12-27 18:56:00,
2014-12-27 14:11:00,50.7,44.0,30.06,SSW,197,6.0,11.0,77,0.00,,,0.00,weatherlink.com 1.10,2014-12-27 19:11:00,
2014-12-27 14:26:00,50.4,44.0,30.07,SW,225,1.0,11.0,78,0.00,,,0.00,weatherlink.com 1.10,2014-12-27 19:26:00,
2014-12-27 14:41:00,49.9,44.0,30.06,SW,232,8.0,13.0,80,0.00,,,0.00,weatherlink.com 1.10,2014-12-27 19:41:00,
2014-12-27 14:57:00,49.7,44.0,30.06,SW,226,5.0,14.0,81,0.00,,,0.00,weatherlink.com 1.10,2014-12-27 19:57:00,
2014-12-27 15:11:00,49.7,44.0,30.06,SW,229,5.0,10.0,82,0.00,,,0.00,weatherlink.com 1.10,2014-12-27 20:11:00,
2014-12-27 15:26:00,49.5,45.0,30.05,WSW,239,1.0,9.0,83,0.00,,,0.00,weatherlink.com 1.10,2014-12-27 20:26:00,
2014-12-27 15:41:00,49.4,45.0,30.06,SW,217,5.0,8.0,84,0.00,,,0.00,weatherlink.com 1.10,2014-12-27 20:41:00,
2014-12-27 15:56:00,49.3,45.0,30.07,West,280,3.0,8.0,86,0.00,,,0.00,weatherlink.com 1.10,2014-12-27 20:56:00,
2014-12-27 16:11:00,49.0,45.0,30.06,West,260,2.0,7.0,87,0.00,,,0.00,weatherlink.com 1.10,2014-12-27 21:11:00,
2014-12-27 16:26:00,48.7,45.0,30.07,WSW,254,4.0,8.0,88,0.00,,,0.00,weatherlink.com 1.10,2014-12-27 21:26:00,
2014-12-27 16:41:00,48.4,45.0,30.06,SW,230,2.0,5.0,89,0.00,,,0.00,weatherlink.com 1.10,2014-12-27 21:41:00,
2014-12-27 16:56:00,48.3,45.0,30.07,WSW,250,1.0,7.0,89,0.00,,,0.00,weatherlink.com 1.10,2014-12-27 21:56:00,
2014-12-27 17:11:00,48.1,45.0,30.06,South,175,0.0,3.0,90,0.00,,,0.00,weatherlink.com 1.10,2014-12-27 22:11:00,
2014-12-27 17:26:00,47.8,45.0,30.06,SW,215,4.0,5.0,91,0.01,,,0.01,weatherlink.com 1.10,2014-12-27 22:26:00,
2014-12-27 17:41:00,47.5,45.0,30.06,SSW,202,0.0,6.0,92,0.02,,,0.02,weatherlink.com 1.10,2014-12-27 22:41:00,
2014-12-27 17:56:00,47.2,45.0,30.06,SW,233,5.0,7.0,93,0.02,,,0.02,weatherlink.com 1.10,2014-12-27 22:56:00,
2014-12-27 18:11:00,47.1,45.0,30.07,West,269,3.0,6.0,93,0.04,,,0.04,weatherlink.com 1.10,2014-12-27 23:11:00,
2014-12-27 18:26:00,47.1,46.0,30.07,WSW,237,2.0,6.0,94,0.05,,,0.06,weatherlink.com 1.10,2014-12-27 23:26:00,
2014-12-27 18:41:00,47.0,45.0,30.07,West,259,1.0,9.0,94,0.05,,,0.07,weatherlink.com 1.10,2014-12-27 23:41:00,
2014-12-27 18:56:00,46.9,45.0,30.04,WSW,240,2.0,7.0,94,0.05,,,0.07,weatherlink.com 1.10,2014-12-27 23:56:00,
2014-12-27 19:11:00,46.8,45.0,30.05,SSW,209,1.0,5.0,94,0.05,,,0.09,weatherlink.com 1.10,2014-12-28 00:11:00,
2014-12-27 19:26:00,46.8,46.0,30.04,SSW,201,5.0,5.0,95,0.04,,,0.10,weatherlink.com 1.10,2014-12-28 00:26:00,
2014-12-27 19:41:00,46.8,46.0,30.04,SW,224,3.0,8.0,95,0.03,,,0.10,weatherlink.com 1.10,2014-12-28 00:41:00,